Peosta, Iowa
Current Conditions -  °F | °C
As of 1:53 AM on Friday 24 Oct 2014 (Local Time) from KDBQ Reporting Station
Haze Haze  
Wind Chill: 50°   Ceiling: 500
Heat Index: 50°   Visibility: 6mi
Dew Point: 49°   Wind: 6mph
Humidity: 96%   Direction: 320°NW
Pressure: 30.05"   Gusts: NA
Location:  42.45°N, 90.85°W
Report Text: KDBQ 240653Z AUTO 32005KT 6SM BR OVC005 10/09 A3005 RMK AO2 SLP180 T01000094
Loading
Personal Weather Stations






























Interactive Weather Map
Tropical Storm Tracking
New forecast layout! Learn more

10-Day Weather Forecast

Advertisements
Track Severe Weather on mobile